Time;durP1;ratioP1;P1;durP2;ratioP2;P2;SDS_P1;SDS_P2;PMS_P1;PMS_P2;Temp;Humidity;BMP_temperature;BMP_pressure;BME280_temperature;BME280_humidity;BME280_pressure;Samples;Min_cycle;Max_cycle;Signal;HPM_P1;HPM_P2
2021/12/31 00:02:11;;;;;;;1.30;0.47;;;29.70;87.60;;;;;;5039699;28;20033;-68
2021/12/31 00:04:38;;;;;;;1.92;0.73;;;29.80;86.00;;;;;;5039354;28;20104;-71
2021/12/31 00:07:05;;;;;;;1.77;0.60;;;29.90;83.60;;;;;;5036698;28;20063;-73
2021/12/31 00:09:32;;;;;;;1.50;0.57;;;29.60;84.80;;;;;;5019540;28;20028;-73
2021/12/31 00:11:59;;;;;;;1.13;0.60;;;29.50;83.60;;;;;;5036845;28;20025;-70
2021/12/31 00:14:26;;;;;;;1.33;0.60;;;29.10;85.60;;;;;;5037318;28;20108;-70
2021/12/31 00:16:53;;;;;;;1.30;0.50;;;29.30;84.90;;;;;;5036779;28;20064;-72
2021/12/31 00:19:21;;;;;;;0.80;0.25;;;29.60;81.90;;;;;;5037759;28;20029;-69
2021/12/31 00:21:50;;;;;;;2.60;0.55;;;29.90;72.60;;;;;;5037579;28;20588;-75
2021/12/31 00:24:18;;;;;;;1.15;0.40;;;30.10;70.10;;;;;;5037074;28;20544;-74
2021/12/31 00:26:44;;;;;;;1.88;0.70;;;30.10;73.00;;;;;;5036978;28;20026;-74
2021/12/31 00:29:11;;;;;;;2.47;0.80;;;30.10;74.50;;;;;;5036976;28;20483;-71
2021/12/31 00:31:38;;;;;;;2.03;0.55;;;30.10;70.40;;;;;;5018914;28;20028;-71
2021/12/31 00:34:05;;;;;;;2.90;0.63;;;30.10;71.70;;;;;;5018001;28;20504;-71
2021/12/31 00:36:39;;;;;;;1.27;1.05;;;30.30;69.20;;;;;;5036643;28;20036;-69
2021/12/31 00:39:06;;;;;;;2.92;1.85;;;30.60;68.50;;;;;;5036659;28;20029;-74
2021/12/31 00:41:33;;;;;;;4.20;2.55;;;30.90;68.50;;;;;;5035908;28;20499;-73
2021/12/31 00:44:00;;;;;;;3.30;1.00;;;30.90;66.10;;;;;;5036542;28;20060;-73
2021/12/31 00:46:29;;;;;;;1.85;0.70;;;31.10;62.70;;;;;;5034971;28;21280;-75
2021/12/31 00:48:56;;;;;;;0.85;0.50;;;31.10;64.00;;;;;;5036373;28;20034;-74
2021/12/31 00:51:23;;;;;;;4.55;1.27;;;31.20;65.70;;;;;;5035782;28;20072;-71
2021/12/31 00:53:50;;;;;;;2.47;0.90;;;31.50;64.80;;;;;;5036184;28;20060;-70
2021/12/31 00:56:17;;;;;;;1.58;1.10;;;31.90;65.50;;;;;;5036735;28;20022;-71
2021/12/31 00:58:44;;;;;;;1.63;0.82;;;32.10;62.10;;;;;;5019468;28;20055;-70
2021/12/31 01:01:17;;;;;;;0.90;0.70;;;32.20;62.30;;;;;;5019646;28;20044;-69
2021/12/31 01:03:44;;;;;;;2.20;0.60;;;32.30;61.80;;;;;;5020286;28;20650;-69
2021/12/31 01:06:11;;;;;;;1.50;0.82;;;32.60;59.60;;;;;;5019140;28;20038;-69
2021/12/31 01:08:39;;;;;;;2.80;1.45;;;32.60;59.20;;;;;;5036183;28;20022;-72
2021/12/31 01:11:06;;;;;;;2.20;1.10;;;32.70;58.30;;;;;;5035623;28;20033;-70
2021/12/31 01:13:50;;;;;;;0.73;0.60;;;32.30;55.20;;;;;;5040045;28;20032;-74
2021/12/31 01:16:19;;;;;;;1.33;0.63;;;32.20;58.00;;;;;;5036250;28;20032;-69
2021/12/31 01:21:16;;;;;;;32.20;9.20;;;32.80;57.40;;;;;;5035990;28;20017;-68
2021/12/31 01:23:43;;;;;;;92.05;26.10;;;33.10;56.70;;;;;;5017871;28;20029;-67
2021/12/31 01:26:11;;;;;;;9.23;2.80;;;33.10;55.70;;;;;;5016923;28;20037;-71
2021/12/31 01:28:38;;;;;;;6.70;1.30;;;32.70;58.10;;;;;;5034932;28;20449;-65
2021/12/31 01:31:06;;;;;;;25.65;3.70;;;32.60;59.00;;;;;;5017143;28;20079;-71
2021/12/31 01:33:34;;;;;;;1.17;0.57;;;32.50;58.60;;;;;;5033953;28;20029;-67
2021/12/31 01:36:01;;;;;;;0.75;0.57;;;32.30;57.50;;;;;;5035493;28;20534;-68
2021/12/31 01:38:29;;;;;;;2.60;0.73;;;32.30;56.60;;;;;;5036718;28;20057;-72
2021/12/31 01:40:55;;;;;;;1.02;0.50;;;32.20;59.00;;;;;;5037226;28;20070;-72
2021/12/31 01:43:23;;;;;;;1.90;0.40;;;32.50;58.20;;;;;;5036166;28;20727;-70
2021/12/31 01:45:56;;;;;;;8.88;1.40;;;32.80;56.80;;;;;;5034389;28;20045;-71
2021/12/31 01:48:26;;;;;;;2.08;0.68;;;33.00;59.10;;;;;;5034404;28;20492;-68
2021/12/31 01:50:54;;;;;;;1.52;0.45;;;33.30;58.60;;;;;;5033797;28;20052;-72
2021/12/31 01:53:22;;;;;;;1.42;0.50;;;33.40;56.40;;;;;;5035214;28;20029;-69
2021/12/31 01:55:51;;;;;;;1.52;0.57;;;33.20;58.60;;;;;;5036737;28;20060;-68
2021/12/31 01:58:22;;;;;;;2.10;0.65;;;33.60;55.90;;;;;;5035658;28;20036;-70
2021/12/31 02:00:50;;;;;;;1.17;0.50;;;33.60;55.60;;;;;;5036765;28;20152;-70
2021/12/31 02:03:19;;;;;;;1.55;0.68;;;33.40;54.20;;;;;;5035425;28;20056;-69
2021/12/31 02:05:46;;;;;;;0.45;0.40;;;33.30;55.40;;;;;;5017760;28;20030;-68
2021/12/31 02:08:13;;;;;;;0.70;0.40;;;33.10;53.50;;;;;;5036133;28;20025;-68
2021/12/31 02:10:40;;;;;;;0.82;0.40;;;33.10;56.00;;;;;;5035314;28;20032;-67
2021/12/31 02:13:10;;;;;;;0.70;0.30;;;33.20;53.60;;;;;;5035810;28;20036;-67
2021/12/31 02:15:37;;;;;;;1.92;0.50;;;33.60;47.10;;;;;;5035697;28;20052;-67
2021/12/31 02:18:08;;;;;;;0.70;0.40;;;34.00;49.60;;;;;;5038621;28;20025;-71
2021/12/31 02:20:40;;;;;;;0.90;0.50;;;34.60;51.60;;;;;;5034393;28;20036;-65
2021/12/31 02:23:13;;;;;;;0.57;0.47;;;34.70;51.80;;;;;;5036509;28;20029;-65
2021/12/31 02:25:40;;;;;;;2.45;0.82;;;35.00;48.90;;;;;;5035163;28;20036;-70
2021/12/31 02:28:08;;;;;;;0.43;0.40;;;35.20;49.60;;;;;;5034730;28;20488;-72
2021/12/31 02:30:35;;;;;;;1.48;0.65;;;35.10;45.50;;;;;;5036258;28;20033;-72
2021/12/31 02:33:03;;;;;;;3.28;2.20;;;34.80;45.90;;;;;;5035161;28;20510;-72
2021/12/31 02:35:32;;;;;;;2.22;1.48;;;34.70;49.10;;;;;;5025243;28;20119;-72
2021/12/31 02:37:59;;;;;;;0.73;0.40;;;34.80;46.00;;;;;;5041820;28;20033;-70
2021/12/31 02:40:28;;;;;;;0.68;0.40;;;35.00;46.80;;;;;;5033297;28;20029;-70
2021/12/31 02:42:56;;;;;;;1.38;0.45;;;35.10;46.90;;;;;;5033909;28;20336;-69
2021/12/31 02:45:34;;;;;;;3.67;2.42;;;35.10;47.10;;;;;;5034109;28;20396;-69
2021/12/31 02:48:03;;;;;;;1.58;1.23;;;35.30;49.80;;;;;;5034703;28;20044;-68
2021/12/31 02:50:35;;;;;;;0.47;0.47;;;35.60;49.60;;;;;;5034009;28;20140;-72
2021/12/31 02:53:07;;;;;;;1.65;0.75;;;35.90;48.60;;;;;;5033472;28;20053;-73
2021/12/31 02:55:37;;;;;;;0.80;0.60;;;35.90;46.40;;;;;;5016058;28;20099;-69
2021/12/31 02:58:05;;;;;;;1.20;0.40;;;35.60;46.60;;;;;;5015591;28;20037;-71
2021/12/31 03:00:34;;;;;;;0.50;0.20;;;35.50;45.30;;;;;;5035700;28;20029;-68
2021/12/31 03:03:02;;;;;;;1.27;0.30;;;35.50;44.90;;;;;;5036812;28;20087;-74
2021/12/31 03:05:30;;;;;;;0.43;0.38;;;35.90;47.60;;;;;;5036962;28;20060;-68
2021/12/31 03:07:59;;;;;;;1.23;0.60;;;36.40;44.30;;;;;;5038169;28;20206;-66
2021/12/31 03:10:27;;;;;;;4.38;3.65;;;36.60;45.50;;;;;;5036803;28;20072;-71
2021/12/31 03:12:54;;;;;;;1.65;0.40;;;36.80;44.90;;;;;;5037739;28;20445;-68
2021/12/31 03:15:23;;;;;;;0.40;0.40;;;36.80;44.20;;;;;;5037488;28;20482;-68
2021/12/31 03:17:51;;;;;;;1.42;0.40;;;37.00;41.20;;;;;;5043907;28;20066;-71
2021/12/31 03:20:36;;;;;;;0.47;0.40;;;36.80;43.60;;;;;;5037001;28;20049;-68
2021/12/31 03:23:05;;;;;;;0.43;0.25;;;37.00;44.00;;;;;;5037315;28;20017;-68
2021/12/31 03:25:32;;;;;;;0.43;0.40;;;37.10;42.10;;;;;;5039485;28;20025;-69
2021/12/31 03:28:00;;;;;;;0.63;0.30;;;36.90;44.00;;;;;;5039740;28;20104;-69
2021/12/31 03:30:27;;;;;;;0.70;0.22;;;36.90;45.80;;;;;;5040261;28;20034;-70
2021/12/31 03:32:55;;;;;;;2.00;0.50;;;36.60;45.60;;;;;;5038091;28;20033;-70
2021/12/31 03:35:22;;;;;;;0.55;0.30;;;36.90;44.50;;;;;;5036834;28;20033;-70
2021/12/31 03:37:49;;;;;;;0.75;0.30;;;37.20;46.50;;;;;;5037850;28;20034;-74
2021/12/31 03:40:16;;;;;;;0.40;0.40;;;37.40;45.00;;;;;;5044651;28;20036;-70
2021/12/31 03:42:43;;;;;;;1.00;0.90;;;37.80;46.90;;;;;;5020139;28;20029;-69
2021/12/31 03:45:11;;;;;;;2.58;1.60;;;38.00;44.90;;;;;;5018266;28;20049;-70
2021/12/31 03:47:38;;;;;;;3.58;1.63;;;37.90;48.20;;;;;;5038641;28;20384;-67
2021/12/31 03:50:05;;;;;;;0.98;0.40;;;37.50;49.10;;;;;;5035717;28;20061;-66
2021/12/31 03:52:36;;;;;;;0.20;0.20;;;37.40;47.70;;;;;;5037893;28;20028;-66
2021/12/31 03:55:03;;;;;;;1.52;0.55;;;37.10;48.30;;;;;;5035960;28;20068;-69
2021/12/31 03:57:30;;;;;;;0.93;0.45;;;37.00;47.90;;;;;;5024706;28;20040;-70
2021/12/31 03:59:57;;;;;;;1.00;0.75;;;36.40;48.90;;;;;;5040023;28;20025;-73
2021/12/31 04:02:24;;;;;;;1.00;0.57;;;36.30;50.10;;;;;;5047263;28;20032;-66
2021/12/31 04:04:51;;;;;;;0.98;0.43;;;36.20;50.30;;;;;;5047091;28;20025;-68
2021/12/31 04:07:19;;;;;;;0.77;0.50;;;35.50;51.20;;;;;;5043268;28;20078;-66
2021/12/31 04:09:46;;;;;;;0.82;0.40;;;35.40;51.70;;;;;;5042904;28;20036;-68
2021/12/31 04:12:13;;;;;;;1.52;0.60;;;36.00;49.20;;;;;;5043818;28;20049;-71
2021/12/31 04:14:40;;;;;;;0.77;0.52;;;36.40;51.60;;;;;;5038831;28;20033;-66
2021/12/31 04:17:07;;;;;;;0.30;0.30;;;36.90;49.50;;;;;;5025503;28;20029;-67
2021/12/31 04:19:34;;;;;;;0.82;0.50;;;37.10;49.50;;;;;;5041515;28;20025;-70
2021/12/31 04:22:01;;;;;;;1.48;0.80;;;37.30;50.10;;;;;;5044816;28;20029;-68
2021/12/31 04:24:50;;;;;;;1.98;0.50;;;37.00;50.00;;;;;;5045459;28;20017;-67
2021/12/31 04:27:15;;;;;;;1.40;0.70;;;37.20;50.10;;;;;;5037069;28;20034;-70
2021/12/31 04:29:49;;;;;;;2.22;0.43;;;37.40;50.30;;;;;;5024039;28;20696;-69
2021/12/31 04:32:17;;;;;;;1.17;0.40;;;37.60;49.80;;;;;;5042024;28;20503;-66
2021/12/31 04:34:44;;;;;;;2.08;0.60;;;37.30;50.50;;;;;;5044589;28;20032;-70
2021/12/31 04:37:11;;;;;;;2.47;0.80;;;37.20;51.50;;;;;;5027877;28;20047;-73
2021/12/31 04:39:38;;;;;;;1.38;0.50;;;37.20;52.80;;;;;;5038294;28;20079;-72
2021/12/31 04:42:05;;;;;;;1.17;0.50;;;37.40;50.50;;;;;;5044347;28;20068;-68
2021/12/31 04:44:32;;;;;;;2.92;0.68;;;38.00;51.80;;;;;;5036817;28;20519;-72
2021/12/31 04:46:59;;;;;;;2.20;0.75;;;38.20;49.30;;;;;;5030586;28;20482;-71
2021/12/31 04:49:26;;;;;;;1.02;0.52;;;38.60;49.80;;;;;;5033034;28;20031;-70
2021/12/31 04:51:53;;;;;;;2.35;0.60;;;38.90;48.30;;;;;;5038484;28;20021;-70
2021/12/31 04:54:21;;;;;;;1.70;0.70;;;38.50;49.70;;;;;;5033227;28;20017;-68
2021/12/31 04:56:52;;;;;;;1.07;0.57;;;38.70;47.70;;;;;;5034800;28;20056;-70
2021/12/31 04:59:22;;;;;;;2.85;0.57;;;38.70;49.00;;;;;;5021743;28;20132;-71
2021/12/31 05:01:49;;;;;;;1.65;0.52;;;38.70;49.20;;;;;;5024985;28;20032;-70
2021/12/31 05:04:17;;;;;;;2.03;0.70;;;38.30;46.60;;;;;;5007793;28;20451;-69
2021/12/31 05:06:44;;;;;;;1.30;0.60;;;37.40;48.40;;;;;;5026289;28;20021;-69
2021/12/31 05:09:11;;;;;;;2.30;0.43;;;37.00;50.30;;;;;;5025472;28;20048;-69
2021/12/31 05:11:38;;;;;;;1.40;0.60;;;37.10;50.40;;;;;;5008015;28;20108;-69
2021/12/31 05:14:05;;;;;;;2.22;0.70;;;37.40;50.90;;;;;;5025206;28;20033;-70
2021/12/31 05:16:35;;;;;;;2.15;0.73;;;37.50;50.20;;;;;;5024883;28;20034;-70
2021/12/31 05:19:03;;;;;;;1.02;0.52;;;37.50;48.90;;;;;;5024460;28;20669;-72
2021/12/31 05:21:31;;;;;;;1.52;0.90;;;37.40;49.80;;;;;;5024565;28;20025;-68
2021/12/31 05:23:59;;;;;;;9.70;8.20;;;37.50;50.90;;;;;;5022443;28;20036;-74
2021/12/31 05:26:26;;;;;;;34.28;31.02;;;37.80;50.40;;;;;;5007483;28;20758;-70
2021/12/31 05:28:53;;;;;;;3.53;2.50;;;37.60;49.90;;;;;;5025113;28;20454;-71
2021/12/31 05:31:29;;;;;;;0.80;0.40;;;37.80;49.70;;;;;;5024598;28;20029;-66
2021/12/31 05:33:56;;;;;;;2.65;0.68;;;37.40;50.10;;;;;;5023871;28;20025;-71
2021/12/31 05:36:22;;;;;;;2.53;1.65;;;37.40;50.50;;;;;;5024478;28;20029;-66
2021/12/31 05:38:49;;;;;;;5.45;2.40;;;37.10;52.00;;;;;;5024421;28;20029;-70
2021/12/31 05:41:17;;;;;;;1.33;0.85;;;37.30;50.90;;;;;;5024392;28;20065;-65
2021/12/31 05:43:44;;;;;;;2.83;1.15;;;37.30;51.10;;;;;;5022590;28;20025;-71
2021/12/31 05:46:12;;;;;;;1.63;0.88;;;37.70;49.30;;;;;;5010952;23;20066;-67
2021/12/31 05:48:38;;;;;;;2.47;0.80;;;37.20;50.00;;;;;;5003332;28;20025;-66
2021/12/31 05:51:05;;;;;;;2.30;1.02;;;36.40;51.50;;;;;;5018495;28;20048;-69
2021/12/31 05:53:32;;;;;;;1.48;0.60;;;36.20;51.40;;;;;;5002747;28;20018;-65
2021/12/31 05:55:59;;;;;;;4.85;1.20;;;36.30;51.30;;;;;;5002368;28;20036;-68
2021/12/31 05:58:26;;;;;;;1.55;0.80;;;36.60;51.70;;;;;;5001595;28;20025;-68
2021/12/31 06:00:53;;;;;;;0.95;0.57;;;37.00;52.00;;;;;;5002102;28;20026;-66
2021/12/31 06:03:20;;;;;;;2.15;0.90;;;37.10;51.40;;;;;;5003186;28;20057;-67
2021/12/31 06:05:47;;;;;;;1.65;0.68;;;37.40;50.40;;;;;;5004396;28;20022;-71
2021/12/31 06:08:14;;;;;;;1.88;0.70;;;37.60;49.70;;;;;;5003910;28;20073;-69
2021/12/31 06:10:45;;;;;;;3.70;0.95;;;38.00;49.10;;;;;;5004998;28;20115;-69
2021/12/31 06:13:13;;;;;;;3.55;0.68;;;37.90;48.90;;;;;;5004609;28;20026;-67
2021/12/31 06:15:44;;;;;;;1.77;0.75;;;38.00;48.70;;;;;;5004844;28;20127;-68
2021/12/31 06:18:11;;;;;;;;;;;38.30;49.30;;;;;;5004787;28;20069;-67
2021/12/31 06:20:38;;;;;;;1.80;0.70;;;38.50;46.40;;;;;;5003786;28;19914;-68
2021/12/31 06:23:05;;;;;;;1.92;0.57;;;38.30;47.20;;;;;;5002774;28;20022;-67
2021/12/31 06:25:32;;;;;;;2.53;0.90;;;38.20;47.00;;;;;;5004186;28;20022;-68
2021/12/31 06:28:01;;;;;;;2.67;0.70;;;38.10;47.00;;;;;;5003439;28;20048;-68
2021/12/31 06:30:28;;;;;;;1.75;0.68;;;37.80;47.20;;;;;;5003672;28;20481;-68
2021/12/31 06:32:55;;;;;;;1.55;0.60;;;37.70;47.90;;;;;;5003940;28;20036;-69
2021/12/31 06:35:24;;;;;;;3.90;0.90;;;36.70;47.70;;;;;;5004190;28;20463;-68
2021/12/31 06:37:53;;;;;;;3.42;0.80;;;36.70;50.20;;;;;;5007703;28;20354;-68
2021/12/31 06:40:20;;;;;;;2.35;0.82;;;36.70;49.10;;;;;;5007342;28;20022;-69
2021/12/31 06:42:47;;;;;;;3.60;0.88;;;36.80;50.20;;;;;;5007855;28;20495;-68
2021/12/31 06:45:14;;;;;;;4.47;1.20;;;37.30;49.70;;;;;;5004929;28;20396;-68
2021/12/31 06:47:41;;;;;;;2.50;1.48;;;37.50;49.30;;;;;;5007403;28;20488;-68
2021/12/31 06:50:09;;;;;;;3.60;1.13;;;37.70;49.80;;;;;;5006677;28;20025;-67
2021/12/31 06:52:40;;;;;;;3.35;0.98;;;37.60;49.40;;;;;;5007271;28;20036;-68
2021/12/31 06:55:08;;;;;;;3.72;0.73;;;37.40;49.30;;;;;;5007209;28;20033;-69
2021/12/31 06:57:35;;;;;;;2.08;0.93;;;37.30;49.90;;;;;;5006310;28;20125;-68
2021/12/31 07:00:07;;;;;;;2.67;0.98;;;37.00;51.30;;;;;;5006223;28;20184;-66
2021/12/31 07:02:34;;;;;;;3.65;0.95;;;37.60;49.70;;;;;;5006533;28;20585;-69
2021/12/31 07:05:01;;;;;;;2.42;1.13;;;37.70;50.00;;;;;;5007469;28;20037;-68
2021/12/31 07:07:28;;;;;;;3.88;2.78;;;37.40;50.70;;;;;;5006915;28;20076;-69
2021/12/31 07:09:55;;;;;;;3.80;1.20;;;37.60;50.60;;;;;;5007269;28;20705;-68
2021/12/31 07:12:22;;;;;;;2.85;1.08;;;37.50;49.40;;;;;;5006104;28;20040;-68
2021/12/31 07:14:49;;;;;;;5.68;1.95;;;36.90;50.60;;;;;;5006715;28;20561;-68
2021/12/31 07:17:16;;;;;;;3.85;1.10;;;37.20;51.00;;;;;;5005439;28;20061;-69
2021/12/31 07:19:43;;;;;;;4.22;1.48;;;37.30;50.70;;;;;;5006401;28;20022;-67
2021/12/31 07:22:11;;;;;;;3.25;1.38;;;37.40;49.80;;;;;;5006620;28;20113;-67
2021/12/31 07:24:38;;;;;;;2.50;0.90;;;37.40;48.60;;;;;;5007075;28;20022;-68
2021/12/31 07:27:05;;;;;;;2.42;0.77;;;37.40;48.50;;;;;;5006864;28;20026;-69
2021/12/31 07:29:32;;;;;;;3.50;1.52;;;37.20;47.80;;;;;;5006425;28;20029;-69
2021/12/31 07:31:59;;;;;;;3.65;1.30;;;37.50;47.60;;;;;;5007166;28;20025;-69
2021/12/31 07:34:26;;;;;;;2.55;1.00;;;37.70;47.70;;;;;;5007213;28;20026;-69
2021/12/31 07:36:53;;;;;;;1.52;0.70;;;37.20;46.70;;;;;;5008099;28;20065;-67
2021/12/31 07:39:24;;;;;;;2.75;1.00;;;37.00;47.50;;;;;;5006439;28;20080;-67
2021/12/31 07:41:51;;;;;;;1.75;0.80;;;37.30;45.40;;;;;;5006979;28;20122;-68
2021/12/31 07:44:18;;;;;;;3.88;1.00;;;37.10;46.30;;;;;;5020211;28;20026;-67
2021/12/31 07:46:46;;;;;;;4.40;1.42;;;36.70;47.50;;;;;;5004251;28;20021;-69
2021/12/31 07:49:13;;;;;;;4.60;0.93;;;37.10;47.90;;;;;;5005283;28;20032;-65
2021/12/31 07:51:40;;;;;;;1.83;1.23;;;37.30;47.90;;;;;;5005443;28;20523;-68
2021/12/31 07:54:07;;;;;;;2.72;1.50;;;37.40;48.20;;;;;;5006385;28;20146;-68
2021/12/31 07:56:34;;;;;;;4.10;1.75;;;37.20;49.00;;;;;;5006404;28;20029;-69
2021/12/31 07:59:01;;;;;;;1.58;0.93;;;37.40;49.00;;;;;;5005834;28;20113;-67
2021/12/31 08:01:28;;;;;;;3.05;0.80;;;36.90;48.00;;;;;;5006085;28;20029;-68
2021/12/31 08:03:55;;;;;;;1.92;0.88;;;36.70;47.70;;;;;;5004743;28;20022;-67
2021/12/31 08:06:22;;;;;;;2.92;1.05;;;36.20;48.30;;;;;;5005567;28;20558;-68
2021/12/31 08:08:49;;;;;;;2.38;1.33;;;35.90;49.50;;;;;;5004945;28;20033;-69
2021/12/31 08:11:16;;;;;;;8.07;6.20;;;35.60;50.10;;;;;;5006388;28;20361;-69
2021/12/31 08:13:43;;;;;;;3.80;1.48;;;35.00;52.00;;;;;;5005714;28;20021;-67
2021/12/31 08:16:10;;;;;;;2.67;1.13;;;34.80;52.00;;;;;;5005665;28;20034;-68
2021/12/31 08:18:37;;;;;;;3.42;1.42;;;34.50;52.70;;;;;;5005247;28;20484;-69
2021/12/31 08:21:04;;;;;;;2.42;0.93;;;34.20;53.80;;;;;;5005621;28;20022;-68
2021/12/31 08:23:31;;;;;;;3.50;1.67;;;34.30;54.00;;;;;;5006036;28;20029;-68
2021/12/31 08:25:59;;;;;;;3.53;1.58;;;34.10;53.40;;;;;;5005304;28;20080;-69
2021/12/31 08:28:27;;;;;;;2.70;1.45;;;33.90;54.40;;;;;;5003953;28;20036;-65
2021/12/31 08:30:54;;;;;;;3.15;1.70;;;33.30;55.20;;;;;;5005667;28;20021;-68
2021/12/31 08:33:21;;;;;;;2.53;1.23;;;32.40;57.10;;;;;;5005294;28;20092;-67
2021/12/31 08:35:47;;;;;;;3.60;1.05;;;31.30;58.90;;;;;;5005873;28;20108;-68
2021/12/31 08:38:14;;;;;;;2.60;1.05;;;30.20;61.80;;;;;;5020055;28;20037;-69
2021/12/31 08:40:41;;;;;;;4.07;1.10;;;29.60;64.30;;;;;;5005653;28;20089;-67
2021/12/31 08:43:08;;;;;;;2.92;1.08;;;29.50;65.60;;;;;;5005025;28;20037;-68
2021/12/31 08:45:36;;;;;;;2.00;0.80;;;29.40;67.10;;;;;;5003310;28;20040;-69
2021/12/31 08:48:04;;;;;;;2.33;0.90;;;29.00;68.50;;;;;;5002999;28;20034;-67
2021/12/31 08:50:32;;;;;;;3.65;2.03;;;28.50;71.30;;;;;;5005412;28;20500;-65
2021/12/31 08:53:00;;;;;;;5.30;1.25;;;28.10;74.00;;;;;;5005722;28;20053;-67
2021/12/31 08:55:27;;;;;;;4.88;1.60;;;27.70;77.50;;;;;;5005542;28;20130;-67
2021/12/31 08:57:54;;;;;;;4.55;1.20;;;27.20;79.80;;;;;;5003522;28;20056;-69
2021/12/31 09:00:21;;;;;;;5.40;1.90;;;26.80;83.30;;;;;;5005097;28;20030;-67
2021/12/31 09:02:50;;;;;;;5.03;1.38;;;26.40;87.20;;;;;;5005430;28;20024;-65
2021/12/31 09:05:18;;;;;;;7.70;2.00;;;26.00;90.40;;;;;;5005472;28;20420;-67
2021/12/31 09:07:45;;;;;;;5.05;1.50;;;25.80;91.90;;;;;;5004788;28;20468;-67
2021/12/31 09:10:12;;;;;;;3.35;1.13;;;25.60;92.90;;;;;;5004876;28;20030;-66
2021/12/31 09:12:39;;;;;;;5.40;1.65;;;25.50;94.10;;;;;;5004624;28;20042;-65
2021/12/31 09:15:07;;;;;;;5.78;1.42;;;25.20;95.70;;;;;;5005370;28;20472;-68
2021/12/31 09:17:34;;;;;;;3.97;1.20;;;25.10;96.70;;;;;;5004632;28;20025;-65
2021/12/31 09:20:02;;;;;;;4.75;1.27;;;24.90;97.60;;;;;;5005170;28;20018;-68
2021/12/31 09:22:29;;;;;;;4.22;1.38;;;24.80;99.00;;;;;;5004858;28;20109;-68
2021/12/31 09:24:59;;;;;;;7.55;1.95;;;24.70;99.80;;;;;;5005327;28;20022;-67
2021/12/31 09:27:27;;;;;;;4.35;1.42;;;24.50;99.90;;;;;;5004065;28;20251;-68
2021/12/31 09:29:54;;;;;;;5.72;1.52;;;24.50;99.90;;;;;;5004887;28;20022;-67
2021/12/31 09:32:22;;;;;;;4.70;1.63;;;24.40;99.90;;;;;;4327922;28;10000817;-69
2021/12/31 09:34:49;;;;;;;4.72;1.50;;;24.30;99.90;;;;;;5016516;28;20463;-67
2021/12/31 09:37:18;;;;;;;7.72;1.73;;;24.20;99.90;;;;;;5001968;28;20800;-69
2021/12/31 09:39:45;;;;;;;6.68;1.92;;;24.10;99.90;;;;;;5002374;28;20511;-69
2021/12/31 09:42:13;;;;;;;4.18;1.23;;;24.10;99.90;;;;;;5001687;28;20564;-66
2021/12/31 09:44:40;;;;;;;5.65;1.70;;;24.00;99.90;;;;;;5000957;28;20429;-67
2021/12/31 09:47:13;;;;;;;4.00;1.70;;;23.80;99.90;;;;;;4997274;28;20034;-67
2021/12/31 09:49:40;;;;;;;3.75;1.65;;;23.70;99.90;;;;;;4999244;28;20116;-68
2021/12/31 09:52:12;;;;;;;5.93;2.13;;;23.70;99.90;;;;;;4999039;28;20057;-67
2021/12/31 09:54:49;;;;;;;5.70;2.38;;;23.60;99.90;;;;;;4998885;28;20654;-67
2021/12/31 09:57:18;;;;;;;3.55;1.60;;;23.50;99.90;;;;;;4998462;28;20041;-68
2021/12/31 09:59:46;;;;;;;6.60;2.08;;;23.50;99.90;;;;;;4999388;28;20025;-67
2021/12/31 10:02:15;;;;;;;5.07;1.92;;;23.50;99.90;;;;;;4999441;28;20625;-67
2021/12/31 10:05:01;;;;;;;7.85;2.05;;;23.30;99.90;;;;;;4998939;28;20050;-69
2021/12/31 10:07:30;;;;;;;6.82;2.80;;;23.30;99.90;;;;;;4998333;28;20468;-67
2021/12/31 10:10:13;;;;;;;8.63;2.95;;;23.20;99.90;;;;;;4998206;28;20488;-68
2021/12/31 10:12:47;;;;;;;8.75;2.33;;;23.20;99.90;;;;;;4998952;28;20030;-68
2021/12/31 10:15:16;;;;;;;5.30;1.63;;;23.20;99.90;;;;;;4999086;28;20076;-69
2021/12/31 10:17:44;;;;;;;4.78;1.40;;;23.10;99.90;;;;;;4998616;28;20539;-66
2021/12/31 10:20:12;;;;;;;3.60;1.20;;;23.00;99.90;;;;;;4998263;28;20030;-69
2021/12/31 10:22:39;;;;;;;3.75;1.20;;;23.00;99.90;;;;;;4998979;28;20022;-66
2021/12/31 10:25:30;;;;;;;7.20;1.85;;;22.80;99.90;;;;;;4999646;28;20033;-67
2021/12/31 10:28:10;;;;;;;3.92;1.70;;;22.80;99.90;;;;;;4999006;28;20026;-67
2021/12/31 10:30:37;;;;;;;4.30;1.63;;;22.80;99.90;;;;;;4651728;28;10000215;-68
2021/12/31 10:33:04;;;;;;;4.93;1.98;;;22.70;99.90;;;;;;4998954;28;20022;-66
2021/12/31 10:35:44;;;;;;;5.55;1.60;;;22.60;99.90;;;;;;4999122;28;20497;-68
2021/12/31 10:38:12;;;;;;;5.68;1.80;;;22.60;99.90;;;;;;4998673;28;20357;-69
2021/12/31 10:40:44;;;;;;;3.22;1.45;;;22.50;99.90;;;;;;4998652;28;20088;-66
2021/12/31 10:43:21;;;;;;;5.85;1.88;;;22.40;99.90;;;;;;4998936;28;20026;-69
2021/12/31 10:46:08;;;;;;;3.50;1.38;;;22.30;99.90;;;;;;4996550;28;20450;-69
2021/12/31 10:48:44;;;;;;;4.78;1.70;;;22.20;99.90;;;;;;4999480;28;20030;-66
2021/12/31 10:51:13;;;;;;;4.60;1.67;;;22.20;99.90;;;;;;5002508;28;20483;-65
2021/12/31 10:53:43;;;;;;;6.05;1.83;;;22.20;99.90;;;;;;5001479;28;20037;-69
2021/12/31 10:56:15;;;;;;;5.32;1.50;;;22.10;99.90;;;;;;5002785;28;20597;-68
2021/12/31 10:58:44;;;;;;;7.30;1.77;;;22.00;99.90;;;;;;5002334;28;20545;-68
2021/12/31 11:01:16;;;;;;;6.50;1.48;;;22.00;99.90;;;;;;5002284;28;20018;-66
2021/12/31 11:03:43;;;;;;;6.38;1.63;;;21.90;99.90;;;;;;5002702;28;20029;-68
2021/12/31 11:06:13;;;;;;;6.50;1.65;;;21.80;99.90;;;;;;5001891;28;20432;-69
2021/12/31 11:08:45;;;;;;;4.07;1.45;;;21.80;99.90;;;;;;5002155;28;20040;-68
2021/12/31 11:11:15;;;;;;;4.53;1.77;;;21.70;99.90;;;;;;5002156;28;20460;-68
2021/12/31 11:13:45;;;;;;;8.18;1.65;;;21.70;99.90;;;;;;5002929;28;20080;-66
2021/12/31 11:16:14;;;;;;;4.03;1.70;;;21.50;99.90;;;;;;5002774;28;20172;-66
2021/12/31 11:18:42;;;;;;;7.70;3.17;;;21.40;99.90;;;;;;5001266;28;20041;-69
2021/12/31 11:21:09;;;;;;;5.25;3.35;;;21.40;99.90;;;;;;5002586;28;20766;-67
2021/12/31 11:23:37;;;;;;;7.80;3.22;;;21.40;99.90;;;;;;5004637;28;20026;-66
2021/12/31 11:26:06;;;;;;;4.78;3.20;;;21.30;99.90;;;;;;5006538;28;20028;-69
2021/12/31 11:28:38;;;;;;;6.80;2.55;;;21.20;99.90;;;;;;5005277;28;20066;-68
2021/12/31 11:31:25;;;;;;;5.20;2.25;;;21.20;99.90;;;;;;5005689;28;20029;-66
2021/12/31 11:34:03;;;;;;;5.93;2.42;;;21.10;99.90;;;;;;5005994;28;20489;-66
2021/12/31 11:36:52;;;;;;;6.25;2.10;;;21.10;99.90;;;;;;5005650;28;20018;-67
2021/12/31 11:39:29;;;;;;;5.60;2.75;;;21.00;99.90;;;;;;5005319;28;20056;-65
2021/12/31 11:42:14;;;;;;;6.40;2.85;;;21.00;99.90;;;;;;5005045;28;20033;-68
2021/12/31 11:45:07;;;;;;;5.82;2.45;;;20.80;99.90;;;;;;5005235;28;20108;-67
2021/12/31 11:47:37;;;;;;;6.40;2.58;;;20.90;99.90;;;;;;5005063;28;20549;-65
2021/12/31 11:50:24;;;;;;;6.88;2.53;;;20.90;99.90;;;;;;5004852;28;20045;-70
2021/12/31 11:53:03;;;;;;;5.55;2.15;;;20.80;99.90;;;;;;5003090;28;20176;-66
2021/12/31 11:55:42;;;;;;;5.82;2.10;;;20.70;99.90;;;;;;5005064;28;20034;-66
2021/12/31 11:58:46;;;;;;;5.93;2.00;;;20.70;99.90;;;;;;5004720;28;20026;-65
2021/12/31 12:01:37;;;;;;;11.00;2.38;;;20.80;99.90;;;;;;5005299;28;20017;-69
2021/12/31 12:04:26;;;;;;;5.68;1.60;;;20.70;99.90;;;;;;5004188;28;20037;-69
2021/12/31 12:06:57;;;;;;;4.55;1.80;;;20.70;99.90;;;;;;5000916;28;20448;-65
2021/12/31 12:09:44;;;;;;;5.85;2.28;;;20.60;99.90;;;;;;5007753;28;20026;-67
2021/12/31 12:12:17;;;;;;;9.52;2.10;;;20.60;99.90;;;;;;5007559;28;20022;-68
2021/12/31 12:14:47;;;;;;;6.28;2.20;;;20.50;99.90;;;;;;5007688;28;20134;-65
2021/12/31 12:17:32;;;;;;;7.65;2.10;;;20.40;99.90;;;;;;5007350;28;20025;-68
2021/12/31 12:20:02;;;;;;;5.32;1.67;;;20.30;99.90;;;;;;5007707;28;20348;-66
2021/12/31 12:22:38;;;;;;;9.07;2.08;;;20.20;99.90;;;;;;5007847;28;20433;-68
2021/12/31 12:25:08;;;;;;;4.93;1.75;;;20.20;99.90;;;;;;5001400;28;20492;-68
2021/12/31 12:27:35;;;;;;;6.05;1.92;;;20.10;99.90;;;;;;5007554;28;20034;-68
2021/12/31 12:30:09;;;;;;;6.57;1.67;;;20.10;99.90;;;;;;5006663;28;20034;-69
2021/12/31 12:32:52;;;;;;;6.40;1.75;;;20.10;99.90;;;;;;5007691;28;20480;-66
2021/12/31 12:35:22;;;;;;;3.83;2.05;;;20.10;99.90;;;;;;5002351;28;20018;-68
2021/12/31 12:37:59;;;;;;;5.35;1.83;;;20.10;99.90;;;;;;5001081;28;20076;-68
2021/12/31 12:40:49;;;;;;;5.28;1.70;;;20.00;99.90;;;;;;5007258;28;20556;-68
2021/12/31 12:43:18;;;;;;;3.60;1.80;;;20.00;99.90;;;;;;5001543;28;20021;-68
2021/12/31 12:45:48;;;;;;;4.05;1.63;;;19.90;99.90;;;;;;5005139;28;20038;-68
2021/12/31 12:48:16;;;;;;;5.65;1.90;;;19.80;99.90;;;;;;5007123;28;20164;-66
2021/12/31 12:50:51;;;;;;;6.13;2.20;;;19.80;99.90;;;;;;5007861;28;20049;-69
2021/12/31 12:53:25;;;;;;;4.40;2.05;;;20.00;99.90;;;;;;5003913;28;20029;-66
2021/12/31 12:56:09;;;;;;;8.73;2.10;;;19.90;99.90;;;;;;5009963;28;20369;-69
2021/12/31 12:58:39;;;;;;;6.93;2.17;;;19.80;99.90;;;;;;5010235;28;20037;-69
2021/12/31 13:01:06;;;;;;;5.60;2.58;;;19.80;99.90;;;;;;5010027;28;20043;-69